Time;durP1;ratioP1;P1;durP2;ratioP2;P2;SDS_P1;SDS_P2;PMS_P1;PMS_P2;Temp;Humidity;BMP_temperature;BMP_pressure;BME280_temperature;BME280_humidity;BME280_pressure;Samples;Min_cycle;Max_cycle;Signal;HPM_P1;HPM_P2
2021/10/22 00:59:57;146405.00;0.49;253.61;0.00;0.00;0.62;;;;;15.80;1.00;;;;;;2278810;61;1310;-85
2021/10/22 01:02:24;30561.00;0.10;53.55;0.00;0.00;0.62;;;;;16.40;1.00;;;;;;2276170;61;973;-85
2021/10/22 01:04:51;8415.00;0.03;15.20;0.00;0.00;0.62;;;;;16.60;1.00;;;;;;2275960;61;1919;-83
2021/10/22 01:09:53;14524.00;0.05;25.79;0.00;0.00;0.62;;;;;16.30;1.00;;;;;;2279086;61;1105;-87
2021/10/22 01:12:50;62903.00;0.21;109.49;0.00;0.00;0.62;;;;;15.90;1.00;;;;;;2272526;61;836;-85
2021/10/22 01:17:48;7453.00;0.02;13.54;0.00;0.00;0.62;;;;;16.20;1.00;;;;;;2278944;61;1302;-86
2021/10/22 01:22:47;0.00;0.00;0.62;0.00;0.00;0.62;;;;;16.30;1.00;;;;;;2278433;61;1183;-83
2021/10/22 01:25:17;0.00;0.00;0.62;0.00;0.00;0.62;;;;;16.70;1.00;;;;;;2268026;61;1919;-85
2021/10/22 01:27:44;0.00;0.00;0.62;0.00;0.00;0.62;;;;;16.40;1.00;;;;;;2260048;61;1017;-85
2021/10/22 01:30:14;13785.00;0.05;24.51;0.00;0.00;0.62;;;;;16.50;1.00;;;;;;2251878;61;994;-86
2021/10/22 01:32:42;1933.00;0.01;3.97;0.00;0.00;0.62;;;;;16.90;1.00;;;;;;2255753;61;884;-82
2021/10/22 01:35:10;72756.00;0.24;126.52;0.00;0.00;0.62;;;;;16.90;1.00;;;;;;2255736;61;1736;-83
2021/10/22 01:37:38;0.00;0.00;0.62;0.00;0.00;0.62;;;;;17.30;1.00;;;;;;2255813;61;1653;-83
2021/10/22 01:40:09;6041.00;0.02;11.09;0.00;0.00;0.62;;;;;17.50;1.00;;;;;;2247893;61;1014;-84
2021/10/22 01:47:42;47127.00;0.16;82.22;0.00;0.00;0.62;;;;;17.30;1.00;;;;;;2278227;61;1133;-87
2021/10/22 01:50:10;70865.00;0.24;123.26;0.00;0.00;0.62;;;;;17.20;1.00;;;;;;2276573;61;910;-84
2021/10/22 01:52:38;15648.00;0.05;27.73;0.00;0.00;0.62;;;;;17.10;1.00;;;;;;2276519;61;1024;-85
2021/10/22 01:55:08;3321.00;0.01;6.38;0.00;0.00;0.62;;;;;17.40;1.00;;;;;;2275939;61;1269;-84
2021/10/22 02:00:05;0.00;0.00;0.62;0.00;0.00;0.62;;;;;17.50;1.00;;;;;;2270380;61;1416;-82
2021/10/22 02:02:32;0.00;0.00;0.62;0.00;0.00;0.62;;;;;17.70;1.00;;;;;;2269280;61;974;-86
2021/10/22 02:04:59;0.00;0.00;0.62;0.00;0.00;0.62;;;;;17.90;1.00;;;;;;2269196;61;1979;-85
2021/10/22 02:07:27;15344.00;0.05;27.21;0.00;0.00;0.62;;;;;17.60;1.00;;;;;;2265455;61;951;-86
2021/10/22 02:09:54;27923.00;0.09;48.99;0.00;0.00;0.62;;;;;17.10;1.00;;;;;;2269148;61;969;-85
2021/10/22 02:14:50;29653.00;0.10;51.98;0.00;0.00;0.62;;;;;16.80;1.00;;;;;;2274445;61;1435;-82
2021/10/22 02:17:17;25845.00;0.09;45.39;0.00;0.00;0.62;;;;;16.80;1.00;;;;;;2268391;61;1012;-86
2021/10/22 02:19:44;47896.00;0.16;83.55;0.00;0.00;0.62;;;;;16.50;1.00;;;;;;2260552;61;966;-84
2021/10/22 02:22:11;24979.00;0.08;43.89;0.00;0.00;0.62;;;;;16.60;1.00;;;;;;2256650;61;1013;-86
2021/10/22 02:24:38;54279.00;0.18;94.59;0.00;0.00;0.62;;;;;16.70;1.00;;;;;;2250081;61;2001;-85
2021/10/22 02:27:05;79714.00;0.27;138.54;0.00;0.00;0.62;;;;;16.80;1.00;;;;;;2256550;61;1306;-83
2021/10/22 02:29:33;62431.00;0.21;108.68;0.00;0.00;0.62;;;;;17.10;1.00;;;;;;2256746;61;1030;-84
2021/10/22 02:32:01;11351.00;0.04;20.29;0.00;0.00;0.62;;;;;17.30;1.00;;;;;;2244722;61;1046;-85
2021/10/22 02:36:56;145674.00;0.49;252.35;0.00;0.00;0.62;;;;;17.10;1.00;;;;;;2278637;61;1903;-84
2021/10/22 02:39:23;0.00;0.00;0.62;0.00;0.00;0.62;;;;;17.00;1.00;;;;;;2277055;61;921;-83
2021/10/22 02:41:50;32324.00;0.11;56.61;0.00;0.00;0.62;;;;;17.00;1.00;;;;;;2268402;61;1022;-85
2021/10/22 02:44:17;68935.00;0.23;119.92;0.00;0.00;0.62;;;;;17.30;1.00;;;;;;2265237;61;1001;-84
2021/10/22 02:46:44;9236.00;0.03;16.63;0.00;0.00;0.62;;;;;17.30;1.00;;;;;;2272369;61;2027;-85
2021/10/22 02:49:12;1628.00;0.01;3.44;0.00;0.00;0.62;;;;;17.60;1.00;;;;;;2268060;61;1042;-84
2021/10/22 02:51:39;13640.00;0.05;24.25;0.00;0.00;0.62;;;;;17.70;1.00;;;;;;2268108;61;1336;-82
2021/10/22 02:54:06;128072.00;0.43;222.00;0.00;0.00;0.62;;;;;17.40;1.00;;;;;;2267944;61;1069;-84
2021/10/22 02:56:33;203920.00;0.68;352.67;0.00;0.00;0.62;;;;;17.30;1.00;;;;;;2268159;61;1714;-85
2021/10/22 02:59:00;233934.00;0.78;404.32;0.00;0.00;0.62;;;;;17.20;1.00;;;;;;2268160;61;1215;-83
2021/10/22 03:01:27;216881.00;0.72;374.98;0.00;0.00;0.62;;;;;17.10;1.00;;;;;;2268390;61;1266;-85
2021/10/22 03:03:54;124658.00;0.42;216.12;0.00;0.00;0.62;;;;;17.00;1.00;;;;;;2269336;61;1044;-85
2021/10/22 03:06:22;321774.00;1.07;555.35;7768.00;0.03;14.08;;;;;17.00;1.00;;;;;;2268652;61;1913;-86
2021/10/22 03:11:18;194138.00;0.65;335.83;0.00;0.00;0.62;;;;;16.50;1.00;;;;;;2278751;61;1382;-82
2021/10/22 03:13:45;74032.00;0.25;128.73;0.00;0.00;0.62;;;;;16.50;1.00;;;;;;2276823;61;1013;-83
2021/10/22 03:16:12;242943.00;0.81;419.81;0.00;0.00;0.62;;;;;16.50;1.00;;;;;;2275635;61;1448;-83
2021/10/22 03:21:06;257435.00;0.86;444.74;0.00;0.00;0.62;;;;;16.70;1.00;;;;;;2270881;61;1403;-84
2021/10/22 03:23:35;154388.00;0.51;267.37;0.00;0.00;0.62;;;;;16.90;1.00;;;;;;2268986;61;964;-84
2021/10/22 03:26:02;245562.00;0.82;424.32;0.00;0.00;0.62;;;;;16.80;1.00;;;;;;2264045;61;2010;-82
2021/10/22 03:28:30;319697.00;1.07;551.78;0.00;0.00;0.62;;;;;16.70;1.00;;;;;;2261115;61;993;-84
2021/10/22 03:30:57;177635.00;0.59;307.42;0.00;0.00;0.62;;;;;16.50;1.00;;;;;;2256491;61;938;-84
2021/10/22 03:33:24;398382.00;1.33;687.02;0.00;0.00;0.62;;;;;16.40;1.00;;;;;;2253194;61;1005;-85
2021/10/22 03:35:51;328711.00;1.10;567.27;0.00;0.00;0.62;;;;;16.40;1.00;;;;;;2253240;61;1324;-82
2021/10/22 03:38:18;190476.00;0.63;329.53;0.00;0.00;0.62;;;;;16.40;1.00;;;;;;2256464;61;974;-84
2021/10/22 03:40:46;382289.00;1.27;659.36;45934.00;0.15;80.15;;;;;16.40;1.00;;;;;;2252604;61;1011;-83
2021/10/22 03:43:13;162682.00;0.54;281.66;0.00;0.00;0.62;;;;;16.60;1.00;;;;;;2252543;61;1025;-84
2021/10/22 03:45:40;195151.00;0.65;337.58;0.00;0.00;0.62;;;;;16.40;1.00;;;;;;2244169;61;1920;-84
2021/10/22 03:48:07;173234.00;0.58;299.84;0.00;0.00;0.62;;;;;16.20;1.00;;;;;;2240134;61;948;-81
2021/10/22 03:50:35;261413.00;0.87;451.58;11218.00;0.04;20.06;;;;;16.10;1.00;;;;;;2240645;61;959;-84
2021/10/22 03:53:03;113963.00;0.38;197.67;0.00;0.00;0.62;;;;;15.90;1.00;;;;;;2240480;61;1002;-87
2021/10/22 03:55:31;239347.00;0.80;413.63;0.00;0.00;0.62;;;;;16.00;1.00;;;;;;2240494;61;1392;-85
2021/10/22 03:57:59;164754.00;0.55;285.23;0.00;0.00;0.62;;;;;15.90;1.00;;;;;;2241041;61;967;-85
2021/10/22 04:00:26;226679.00;0.76;391.84;0.00;0.00;0.62;;;;;16.10;1.00;;;;;;2244535;61;967;-84
2021/10/22 04:02:53;158241.00;0.53;274.01;0.00;0.00;0.62;;;;;16.10;1.00;;;;;;2245566;61;997;-81
2021/10/22 04:05:20;224517.00;0.75;388.12;0.00;0.00;0.62;;;;;16.00;1.00;;;;;;2246898;61;1912;-85
2021/10/22 04:07:47;138657.00;0.46;240.26;0.00;0.00;0.62;;;;;16.10;1.00;;;;;;2253818;61;942;-88
2021/10/22 04:10:14;101923.00;0.34;176.89;0.00;0.00;0.62;;;;;16.40;1.00;;;;;;2253649;61;941;-85
2021/10/22 04:12:41;245369.00;0.82;423.99;22752.00;0.08;40.04;;;;;16.70;1.00;;;;;;2252308;61;995;-85
2021/10/22 04:15:10;141224.00;0.47;244.68;0.00;0.00;0.62;;;;;16.60;1.00;;;;;;2244736;61;1520;-83
2021/10/22 04:17:37;65879.00;0.22;114.64;0.00;0.00;0.62;;;;;16.60;1.00;;;;;;2248064;61;939;-82
2021/10/22 04:20:05;187765.00;0.63;324.86;0.00;0.00;0.62;;;;;16.60;1.00;;;;;;2240399;61;986;-83
2021/10/22 04:22:32;73564.00;0.25;127.92;0.00;0.00;0.62;;;;;16.90;1.00;;;;;;2240272;61;1324;-84
2021/10/22 04:24:59;547066.00;1.82;942.90;49299.00;0.16;85.97;;;;;16.90;1.00;;;;;;2240325;61;2002;-85
2021/10/22 04:27:26;62672.00;0.21;109.10;0.00;0.00;0.62;;;;;16.80;1.00;;;;;;2240563;61;1029;-85
2021/10/22 04:29:54;249738.00;0.83;431.50;0.00;0.00;0.62;;;;;16.90;1.00;;;;;;2235117;61;972;-85
2021/10/22 04:32:23;200725.00;0.67;347.17;0.00;0.00;0.62;;;;;17.10;1.00;;;;;;2249118;61;1807;-85
2021/10/22 04:34:50;184289.00;0.61;318.88;0.00;0.00;0.62;;;;;17.00;1.00;;;;;;2256000;61;1684;-86
2021/10/22 04:37:31;226857.00;0.76;392.14;0.00;0.00;0.62;;;;;16.90;1.00;;;;;;2249199;61;969;-84
2021/10/22 04:42:46;12175.00;0.04;21.72;0.00;0.00;0.62;;;;;16.60;1.00;;;;;;2248436;61;1014;-84
2021/10/22 04:45:13;25569.00;0.09;44.91;0.00;0.00;0.62;;;;;16.70;1.00;;;;;;2251998;61;1999;-82
2021/10/22 04:48:23;35699.00;0.12;62.45;0.00;0.00;0.62;;;;;16.80;1.00;;;;;;2252264;61;1022;-83
2021/10/22 04:50:51;587633.00;1.96;1012.87;0.00;0.00;0.62;;;;;16.30;1.00;;;;;;2251966;61;979;-85
2021/10/22 04:53:22;29649.00;0.10;51.98;0.00;0.00;0.62;;;;;16.40;1.00;;;;;;2252415;61;943;-86
2021/10/22 04:55:50;98900.00;0.33;171.67;21603.00;0.07;38.05;;;;;16.20;1.00;;;;;;2252134;61;1307;-85
2021/10/22 04:58:18;190846.00;0.64;330.17;40076.00;0.13;70.02;;;;;15.50;1.00;;;;;;2252177;61;1022;-84
2021/10/22 05:00:44;36080.00;0.12;63.11;0.00;0.00;0.62;;;;;15.20;1.00;;;;;;2252255;61;975;-85
2021/10/22 05:03:12;39924.00;0.13;69.76;0.00;0.00;0.62;;;;;14.80;1.00;;;;;;2248126;61;979;-81
2021/10/22 05:05:39;191206.00;0.64;330.78;11529.00;0.04;20.60;;;;;15.30;1.00;;;;;;2241529;61;1997;-83
2021/10/22 05:08:07;128450.00;0.43;222.66;0.00;0.00;0.62;;;;;15.10;1.00;;;;;;2248088;61;1768;-83
2021/10/22 05:10:34;224295.00;0.75;387.73;45115.00;0.15;78.74;;;;;14.30;1.00;;;;;;2249396;61;1026;-83
2021/10/22 05:13:01;13235.00;0.04;23.55;0.00;0.00;0.62;;;;;13.50;1.00;;;;;;2256141;61;1027;-84
2021/10/22 05:15:28;21133.00;0.07;37.23;0.00;0.00;0.62;;;;;13.60;1.00;;;;;;2256068;61;1343;-82
2021/10/22 05:17:55;54477.00;0.18;94.93;0.00;0.00;0.62;;;;;13.70;1.00;;;;;;2255953;61;1652;-83
2021/10/22 05:20:22;94725.00;0.32;164.47;0.00;0.00;0.62;;;;;14.10;1.00;;;;;;2253363;61;970;-85
2021/10/22 05:22:50;171018.00;0.57;296.02;0.00;0.00;0.62;;;;;14.30;1.00;;;;;;2256832;61;1029;-83
2021/10/22 05:27:46;54490.00;0.18;94.95;0.00;0.00;0.62;;;;;15.00;1.00;;;;;;2278778;61;1410;-87
2021/10/22 05:30:14;10627.00;0.04;19.04;0.00;0.00;0.62;;;;;15.00;1.00;;;;;;2277150;61;393;-88
2021/10/22 05:32:43;61076.00;0.20;106.34;0.00;0.00;0.62;;;;;15.40;1.00;;;;;;2277078;61;508;-89
2021/10/22 05:35:11;223571.00;0.75;386.49;24489.00;0.08;43.04;;;;;15.40;1.00;;;;;;2277059;61;1190;-87
2021/10/22 05:37:39;180111.00;0.60;311.68;0.00;0.00;0.62;;;;;15.50;1.00;;;;;;2269247;61;894;-89
2021/10/22 05:40:08;158166.00;0.53;273.88;0.00;0.00;0.62;;;;;15.60;1.00;;;;;;2269344;61;917;-89
2021/10/22 05:42:35;107667.00;0.36;186.80;0.00;0.00;0.62;;;;;15.70;1.00;;;;;;2269120;61;1821;-89
2021/10/22 06:29:24;1116115.00;3.72;1939.27;58119.00;0.19;101.22;;;;;17.20;1.00;;;;;;2289930;39;3288;31
2021/10/22 07:55:44;277254.00;0.92;478.82;87426.00;0.29;151.86;;;;;14.70;1.00;;;;;;2405908;39;3837;31
2021/10/22 08:27:55;153716.00;0.51;266.21;0.00;0.00;0.62;;;;;15.70;1.00;;;;;;2278716;61;1963;-85
2021/10/22 08:32:51;108924.00;0.36;188.97;0.00;0.00;0.62;;;;;15.80;1.00;;;;;;2278448;61;1423;-84
2021/10/22 08:47:54;850321.00;2.83;1469.03;264435.00;0.88;456.77;;;;;16.40;1.00;;;;;;2543260;40;1948;31
2021/10/22 09:10:24;18426.00;0.06;32.54;0.00;0.00;0.62;;;;;16.50;1.00;;;;;;2278956;61;905;-86
2021/10/22 10:39:56;167643.00;0.56;290.21;27687.00;0.09;48.58;;;;;16.20;1.00;;;;;;2271060;61;1299;-89
2021/10/22 10:42:26;379294.00;1.26;654.21;104699.00;0.35;181.68;;;;;15.70;1.00;;;;;;2261052;61;912;-88
2021/10/22 10:44:55;389876.00;1.30;672.40;126627.00;0.42;219.51;;;;;16.00;1.00;;;;;;2261030;61;965;-84
2021/10/22 10:47:50;21429.00;0.07;37.74;0.00;0.00;0.62;;;;;16.40;1.00;;;;;;2257235;61;1982;-88
2021/10/22 10:52:47;71783.00;0.24;124.84;0.00;0.00;0.62;;;;;15.60;1.00;;;;;;2279396;61;1294;-87
2021/10/22 11:37:28;23457.00;0.08;41.26;0.00;0.00;0.62;;;;;16.30;1.00;;;;;;2279565;61;1318;-90
2021/10/22 11:39:57;215605.00;0.72;372.78;0.00;0.00;0.62;;;;;16.60;1.00;;;;;;2277539;61;387;-89
2021/10/22 11:44:56;136326.00;0.45;236.24;0.00;0.00;0.62;;;;;16.50;1.00;;;;;;2283340;61;1301;-87
2021/10/22 12:39:24;258547.00;0.86;446.65;0.00;0.00;0.62;;;;;16.80;1.00;;;;;;2511819;40;3504;31
2021/10/22 14:10:40;14110.00;0.05;25.07;0.00;0.00;0.62;;;;;16.10;1.00;;;;;;2278690;61;1379;-80
2021/10/22 14:13:12;219475.00;0.73;379.44;0.00;0.00;0.62;;;;;16.00;1.00;;;;;;2269831;61;976;-82
2021/10/22 14:24:46;370815.00;1.24;639.64;84122.00;0.28;146.16;;;;;15.30;1.00;;;;;;2271918;61;1600;-79
2021/10/22 14:29:58;358288.00;1.19;618.11;82330.00;0.27;143.06;;;;;15.70;1.00;;;;;;2271889;61;1103;-79
2021/10/22 14:32:26;173720.00;0.58;300.67;79976.00;0.27;139.00;;;;;15.90;1.00;;;;;;2268472;61;1608;-80
2021/10/22 14:34:58;420471.00;1.40;725.00;120058.00;0.40;208.18;;;;;15.60;1.00;;;;;;2271902;61;1406;-80
2021/10/22 14:37:27;122705016.00;409.02;74845920.00;81418.00;0.27;141.49;;;;;15.60;1.00;;;;;;2271784;61;2002;-80
2021/10/22 14:39:54;210002.00;0.70;363.14;85659.00;0.29;148.81;;;;;15.60;1.00;;;;;;2271894;60;1754;-80
2021/10/22 14:42:20;563773.00;1.88;971.71;160489.00;0.53;277.88;;;;;15.80;1.00;;;;;;2262640;61;1604;-81
2021/10/22 14:44:47;262870.00;0.88;454.08;79932.00;0.27;138.92;;;;;15.90;1.00;;;;;;2253909;61;968;-81
2021/10/22 14:47:19;237112.00;0.79;409.78;81776.00;0.27;142.10;;;;;16.00;1.00;;;;;;2263655;61;1255;-81
2021/10/22 14:49:47;288508.00;0.96;498.16;112722.00;0.38;195.53;;;;;15.90;1.00;;;;;;2263520;61;1246;-81
2021/10/22 14:52:38;341897.00;1.14;589.93;120654.00;0.40;209.21;;;;;15.80;1.00;;;;;;2257297;61;998;-79
2021/10/22 14:55:15;423956.00;1.41;730.99;81642.00;0.27;141.87;;;;;15.60;1.00;;;;;;2264918;61;1604;-79
2021/10/22 14:57:42;305804.00;1.02;527.90;76506.00;0.26;133.00;;;;;15.50;1.00;;;;;;2271391;61;2016;-78
2021/10/22 15:00:10;468456.00;1.56;807.53;90159.00;0.30;156.58;;;;;15.60;1.00;;;;;;2265860;61;1322;-82
2021/10/22 15:02:38;347307.00;1.16;599.23;135959.00;0.45;235.60;;;;;15.60;1.00;;;;;;2275325;61;1281;-80
2021/10/22 15:05:07;375053.00;1.25;646.92;104676.00;0.35;181.64;;;;;15.60;1.00;;;;;;2278701;60;1400;-80
2021/10/22 15:07:35;461782.00;1.54;796.05;155481.00;0.52;269.25;;;;;15.60;1.00;;;;;;2279691;61;1792;-82
2021/10/22 15:10:03;221065.00;0.74;382.18;75593.00;0.25;131.42;;;;;15.70;1.00;;;;;;2279253;60;1310;-80
2021/10/22 15:12:30;460216.00;1.53;793.36;88057.00;0.29;152.95;;;;;15.50;1.00;;;;;;2279454;60;1263;-80
2021/10/22 15:14:57;370281.00;1.23;638.72;77335.00;0.26;134.43;;;;;15.60;1.00;;;;;;2278331;60;1398;-81
2021/10/22 15:17:23;341720.00;1.14;589.63;126236.00;0.42;218.84;;;;;15.80;1.00;;;;;;2279986;61;1990;-81
2021/10/22 15:19:50;517323.00;1.72;891.65;90634.00;0.30;157.40;;;;;15.80;1.00;;;;;;2277328;60;986;-83
2021/10/22 15:22:18;232999.00;0.78;402.71;99347.00;0.33;172.44;;;;;15.90;1.00;;;;;;2280167;60;931;-79
2021/10/22 15:24:46;403033.00;1.34;695.02;97936.00;0.33;170.01;;;;;15.80;1.00;;;;;;2283422;61;973;-81
2021/10/22 15:27:13;218354.00;0.73;377.51;82560.00;0.28;143.46;;;;;15.90;1.00;;;;;;2283535;61;1385;-80
2021/10/22 15:29:40;320368.00;1.07;552.93;89818.00;0.30;155.99;;;;;16.00;1.00;;;;;;2280823;61;974;-78
2021/10/22 15:32:07;363129.00;1.21;626.43;92214.00;0.31;160.13;;;;;16.00;1.00;;;;;;2277369;61;958;-81
2021/10/22 15:34:35;287145.00;0.96;495.82;85556.00;0.29;148.63;;;;;15.80;1.00;;;;;;2274150;61;926;-81
2021/10/22 15:37:03;420662.00;1.40;725.33;113062.00;0.38;196.11;;;;;15.40;1.00;;;;;;2280817;61;1923;-80
2021/10/22 15:39:30;451071.00;1.50;777.62;89640.00;0.30;155.69;;;;;15.30;1.00;;;;;;2280673;61;1216;-81
2021/10/22 15:41:58;338315.00;1.13;583.78;94261.00;0.31;163.66;;;;;15.40;1.00;;;;;;2281173;61;958;-81
2021/10/22 15:47:00;377179.00;1.26;650.58;83735.00;0.28;145.49;;;;;15.60;1.00;;;;;;2279219;61;1440;-82
2021/10/22 15:49:27;287837.00;0.96;497.01;86753.00;0.29;150.70;;;;;16.00;1.00;;;;;;2277077;61;1243;-80
2021/10/22 15:51:54;420197.00;1.40;724.53;85810.00;0.29;149.07;;;;;16.10;1.00;;;;;;2277134;61;1287;-82
2021/10/22 15:54:22;385332.00;1.28;664.59;93927.00;0.31;163.09;;;;;16.20;1.00;;;;;;2277239;61;1141;-80
2021/10/22 15:56:48;397161.00;1.32;684.92;82025.00;0.27;142.54;;;;;16.20;1.00;;;;;;2277050;61;2018;-81
2021/10/22 15:59:17;441022.00;1.47;760.34;86695.00;0.29;150.60;;;;;15.90;1.00;;;;;;2277288;61;953;-82
2021/10/22 16:04:15;707204.00;2.36;1219.73;169689.00;0.57;293.73;;;;;15.60;1.00;;;;;;2278651;61;1375;-82
2021/10/22 16:06:53;510133.00;1.70;879.27;110569.00;0.37;191.81;;;;;15.50;1.00;;;;;;2277252;60;1429;-81
2021/10/22 16:09:25;382081.00;1.27;659.00;87047.00;0.29;151.21;;;;;15.20;1.00;;;;;;2273596;60;1003;-79
2021/10/22 16:11:54;272012.00;0.91;469.80;100638.00;0.34;174.67;;;;;15.30;1.00;;;;;;2277290;61;1307;-79
2021/10/22 16:17:08;341558.00;1.14;589.35;0.00;0.00;0.62;;;;;15.90;1.00;;;;;;2277341;60;1979;-82
2021/10/22 16:19:36;279261.00;0.93;482.27;0.00;0.00;0.62;;;;;16.40;1.00;;;;;;2270407;61;1021;-80
2021/10/22 16:22:03;395445.00;1.32;681.97;97092.00;0.32;168.55;;;;;16.40;1.00;;;;;;2270026;60;948;-80
2021/10/22 16:24:30;451003.00;1.50;777.51;146439.00;0.49;253.67;;;;;16.50;1.00;;;;;;2277348;60;910;-78
2021/10/22 16:26:57;602958.00;2.01;1039.33;116343.00;0.39;201.77;;;;;16.30;1.00;;;;;;2273272;60;1436;-81
2021/10/22 16:29:25;827980.00;2.76;1429.97;151759.00;0.51;262.84;;;;;16.00;1.00;;;;;;2272593;61;1009;-83
2021/10/22 16:36:55;302978.00;1.01;523.04;0.00;0.00;0.62;;;;;15.90;1.00;;;;;;2275047;61;1981;-81
2021/10/22 16:41:50;269087.00;0.90;464.77;82096.00;0.27;142.66;;;;;16.50;1.00;;;;;;2282237;61;1360;-82
2021/10/22 16:44:17;348922.00;1.16;602.01;83038.00;0.28;144.28;;;;;16.70;1.00;;;;;;2280470;61;988;-79
2021/10/22 16:46:46;366954.00;1.22;633.00;90864.00;0.30;157.80;;;;;16.80;1.00;;;;;;2280711;61;1439;-79
2021/10/22 16:49:13;298950.00;1.00;516.12;96833.00;0.32;168.10;;;;;16.60;1.00;;;;;;2276368;61;972;-82
2021/10/22 16:51:40;235806.00;0.79;407.54;85821.00;0.29;149.09;;;;;16.60;1.00;;;;;;2268594;61;1005;-81
2021/10/22 16:54:07;305677.00;1.02;527.68;86748.00;0.29;150.69;;;;;16.60;1.00;;;;;;2258759;61;940;-83
2021/10/22 16:56:35;354942.00;1.18;612.36;84791.00;0.28;147.31;;;;;16.40;1.00;;;;;;2264495;61;1497;-78
2021/10/22 16:59:02;515184.00;1.72;887.97;82611.00;0.28;143.55;;;;;16.40;1.00;;;;;;2267485;61;1939;-82
2021/10/22 17:01:29;260236.00;0.87;449.55;90497.00;0.30;157.17;;;;;16.60;1.00;;;;;;2268569;61;1155;-79
2021/10/22 17:03:58;295163.00;0.98;509.61;85596.00;0.29;148.70;;;;;16.90;1.00;;;;;;2264991;61;1030;-82
2021/10/22 17:06:25;244964.00;0.82;423.29;80113.00;0.27;139.23;;;;;17.10;1.00;;;;;;2269535;61;1345;-81
2021/10/22 17:08:52;345478.00;1.15;596.09;75396.00;0.25;131.08;;;;;17.20;1.00;;;;;;2277014;61;1722;-81
2021/10/22 17:11:19;231342.00;0.77;399.86;78330.00;0.26;136.15;;;;;17.30;1.00;;;;;;2280868;61;979;-82
2021/10/22 17:13:46;266790.00;0.89;460.82;99061.00;0.33;171.95;;;;;17.50;1.00;;;;;;2280656;60;1653;-80
2021/10/22 17:16:13;252218.00;0.84;435.77;82662.00;0.28;143.64;;;;;17.80;1.00;;;;;;2280806;60;1634;-80
2021/10/22 17:18:40;287631.00;0.96;496.66;83826.00;0.28;145.65;;;;;17.80;1.00;;;;;;2280790;60;1992;-80
2021/10/22 17:21:09;259793.00;0.87;448.79;79824.00;0.27;138.73;;;;;17.80;1.00;;;;;;2276367;61;969;-79
2021/10/22 17:23:36;508821.00;1.70;877.01;158372.00;0.53;274.23;;;;;17.50;1.00;;;;;;2269666;61;997;-82
2021/10/22 17:26:03;207937.00;0.69;359.58;76307.00;0.25;132.66;;;;;16.80;1.00;;;;;;2276493;61;1397;-78
2021/10/22 17:28:31;249160.00;0.83;430.51;73636.00;0.25;128.04;;;;;16.80;1.00;;;;;;2275836;61;1610;-79
2021/10/22 17:33:25;350852.00;1.17;605.33;81623.00;0.27;141.84;;;;;16.20;1.00;;;;;;2282479;60;1407;-80
2021/10/22 17:35:52;251633.00;0.84;434.76;83322.00;0.28;144.78;;;;;16.30;1.00;;;;;;2280780;60;1315;-82
2021/10/22 17:40:51;377530.00;1.26;651.18;106162.00;0.35;184.21;;;;;16.80;1.00;;;;;;2274833;61;1296;-83
2021/10/22 17:43:18;297509.00;0.99;513.64;79504.00;0.27;138.18;;;;;17.00;1.00;;;;;;2272755;61;1302;-80
2021/10/22 17:45:45;208802.00;0.70;361.07;82619.00;0.28;143.56;;;;;17.10;1.00;;;;;;2272598;61;1424;-82
2021/10/22 17:48:16;286188.00;0.95;494.18;73609.00;0.25;128.00;;;;;17.40;1.00;;;;;;2272599;61;1304;-80
2021/10/22 17:50:44;338255.00;1.13;583.67;85411.00;0.28;148.38;;;;;17.50;1.00;;;;;;2272868;61;1099;-82
2021/10/22 17:53:12;253319.00;0.84;437.66;81783.00;0.27;142.12;;;;;17.50;1.00;;;;;;2272690;61;1264;-79
2021/10/22 17:55:39;378732.00;1.26;653.25;115259.00;0.38;199.90;;;;;17.60;1.00;;;;;;2272743;61;1396;-79
2021/10/22 17:58:07;477473.00;1.59;823.05;105079.00;0.35;182.34;;;;;17.50;1.00;;;;;;2272555;61;1993;-82
2021/10/22 18:00:34;207839.00;0.69;359.42;83844.00;0.28;145.68;;;;;17.40;1.00;;;;;;2268443;61;1658;-81
2021/10/22 18:03:01;228761.00;0.76;395.42;85786.00;0.29;149.03;;;;;17.10;1.00;;;;;;2272616;61;1251;-82
2021/10/22 18:05:28;259664.00;0.87;448.57;80657.00;0.27;140.17;;;;;16.90;1.00;;;;;;2268722;61;1627;-80
2021/10/22 18:07:55;293327.00;0.98;506.45;79198.00;0.26;137.65;;;;;16.60;1.00;;;;;;2272633;61;1688;-82
2021/10/22 18:12:50;533265.00;1.78;919.12;90647.00;0.30;157.42;;;;;16.80;1.00;;;;;;2277841;61;1387;-80
2021/10/22 18:15:18;366684.00;1.22;632.54;80194.00;0.27;139.37;;;;;16.80;1.00;;;;;;2276472;61;1280;-82
2021/10/22 18:22:41;390962.00;1.30;674.27;78714.00;0.26;136.82;;;;;14.70;1.00;;;;;;2283287;61;1023;-78
2021/10/22 18:27:36;200504.00;0.67;346.79;88838.00;0.30;154.30;;;;;14.60;1.00;;;;;;2282621;60;1316;-78
2021/10/22 18:30:06;255732.00;0.85;441.81;96665.00;0.32;167.81;;;;;14.20;1.00;;;;;;2277206;60;923;-80
2021/10/22 18:32:36;102363.00;0.34;177.65;0.00;0.00;0.62;;;;;14.40;1.00;;;;;;2279350;60;1220;-80
2021/10/22 18:35:07;209967.00;0.70;363.08;83238.00;0.28;144.63;;;;;14.00;1.00;;;;;;2277058;60;1400;-79
2021/10/22 18:37:34;174193.00;0.58;301.49;97841.00;0.33;169.85;;;;;14.00;1.00;;;;;;2272565;60;1998;-78
2021/10/22 18:40:01;118079.00;0.39;204.77;0.00;0.00;0.62;;;;;14.00;1.00;;;;;;2272579;60;1139;-81
2021/10/22 18:42:28;239515.00;0.80;413.92;0.00;0.00;0.62;;;;;13.90;1.00;;;;;;2272653;60;1100;-81
2021/10/22 18:44:55;349424.00;1.16;602.87;77828.00;0.26;135.29;;;;;13.60;1.00;;;;;;2272463;60;1311;-79
2021/10/22 18:47:22;39163.00;0.13;68.44;0.00;0.00;0.62;;;;;13.70;1.00;;;;;;2272442;60;1564;-81
2021/10/22 18:49:55;149088.00;0.50;258.24;0.00;0.00;0.62;;;;;13.70;1.00;;;;;;2272366;60;1821;-83
2021/10/22 18:52:23;276286.00;0.92;477.15;88964.00;0.30;154.52;;;;;14.00;1.00;;;;;;2272558;60;1141;-82
2021/10/22 18:54:51;359126.00;1.20;619.55;110756.00;0.37;192.13;;;;;14.10;1.00;;;;;;2273821;60;1072;-80
2021/10/22 18:57:18;394289.00;1.31;679.99;113281.00;0.38;196.49;;;;;14.00;1.00;;;;;;2280794;60;1353;-80
2021/10/22 18:59:46;317282.00;1.06;547.63;94156.00;0.31;163.48;;;;;13.80;1.00;;;;;;2280774;60;2001;-82
2021/10/22 19:02:14;237231.00;0.79;409.99;79368.00;0.26;137.95;;;;;14.30;1.00;;;;;;2280694;60;1769;-81
2021/10/22 19:04:45;216408.00;0.72;374.16;94807.00;0.32;164.61;;;;;14.00;1.00;;;;;;2281306;60;1430;-80
2021/10/22 19:07:13;429054.00;1.43;739.76;79541.00;0.27;138.24;;;;;13.50;1.00;;;;;;2281498;60;1328;-82
2021/10/22 19:09:40;555542.00;1.85;957.51;128571.00;0.43;222.87;;;;;13.30;1.00;;;;;;2280518;60;1309;-82
2021/10/22 19:12:07;319600.00;1.07;551.61;128082.00;0.43;222.02;;;;;13.70;1.00;;;;;;2281397;60;1220;-81
2021/10/22 19:14:35;443732.00;1.48;765.00;79718.00;0.27;138.55;;;;;13.70;1.00;;;;;;2281508;60;1037;-81
2021/10/22 19:17:03;367902.00;1.23;634.63;97574.00;0.33;169.38;;;;;14.00;1.00;;;;;;2274224;60;1260;-80
2021/10/22 19:19:30;196905.00;0.66;340.60;82519.00;0.28;143.39;;;;;13.80;1.00;;;;;;2280973;60;1919;-81
2021/10/22 19:21:57;196448.00;0.65;339.81;84860.00;0.28;147.43;;;;;13.70;1.00;;;;;;2281353;60;1252;-79
2021/10/22 19:24:25;80904.00;0.27;140.60;0.00;0.00;0.62;;;;;13.30;1.00;;;;;;2281373;60;1041;-79
2021/10/22 19:26:52;117278.00;0.39;203.39;0.00;0.00;0.62;;;;;13.20;1.00;;;;;;2280915;60;1429;-84
2021/10/22 19:29:19;142492.00;0.47;246.87;13349.00;0.04;23.75;;;;;13.10;1.00;;;;;;2281364;60;1277;-80
2021/10/22 19:31:47;15693.00;0.05;27.81;0.00;0.00;0.62;;;;;13.20;1.00;;;;;;2281282;60;1733;-82
2021/10/22 19:34:13;57739.00;0.19;100.57;0.00;0.00;0.62;;;;;13.50;1.00;;;;;;2281328;60;1753;-81
2021/10/22 19:36:41;260632.00;0.87;450.24;28567.00;0.10;50.10;;;;;13.40;1.00;;;;;;2281248;60;1321;-82
2021/10/22 19:39:08;127451.00;0.42;220.93;43265.00;0.14;75.54;;;;;13.80;1.00;;;;;;2281403;60;1992;-81
2021/10/22 19:41:36;43886.00;0.15;76.61;0.00;0.00;0.62;;;;;14.00;1.00;;;;;;2281230;60;1746;-81
2021/10/22 19:44:04;224969.00;0.75;388.89;45250.00;0.15;78.97;;;;;13.60;1.00;;;;;;2281450;60;847;-82
2021/10/22 19:46:31;49232.00;0.16;85.86;0.00;0.00;0.62;;;;;13.30;1.00;;;;;;2281421;60;1757;-79
2021/10/22 19:48:59;0.00;0.00;0.62;0.00;0.00;0.62;;;;;12.80;1.00;;;;;;2281457;60;1242;-79
2021/10/22 19:51:26;35139.00;0.12;61.48;0.00;0.00;0.62;;;;;13.00;1.00;;;;;;2281481;60;1216;-79